sensor_id;sensor_type;location;lat;lon;timestamp;P1;durP1;ratioP1;P2;durP2;ratioP2
39218;SDS011;24934;52.752;6.964;2022-07-10T00:02:13;13.35;;;6.13;;
39218;SDS011;24934;52.752;6.964;2022-07-10T00:04:38;12.35;;;6.13;;
39218;SDS011;24934;52.752;6.964;2022-07-10T00:07:04;9.98;;;5.63;;
39218;SDS011;24934;52.752;6.964;2022-07-10T00:09:31;9.20;;;5.88;;
39218;SDS011;24934;52.752;6.964;2022-07-10T00:11:56;7.65;;;5.80;;
39218;SDS011;24934;52.752;6.964;2022-07-10T00:14:22;10.82;;;5.47;;
39218;SDS011;24934;52.752;6.964;2022-07-10T00:16:48;10.57;;;5.70;;
39218;SDS011;24934;52.752;6.964;2022-07-10T00:19:14;10.05;;;5.75;;
39218;SDS011;24934;52.752;6.964;2022-07-10T00:21:39;12.15;;;6.45;;
39218;SDS011;24934;52.752;6.964;2022-07-10T00:24:05;10.50;;;6.43;;
39218;SDS011;24934;52.752;6.964;2022-07-10T00:26:30;13.40;;;5.63;;
39218;SDS011;24934;52.752;6.964;2022-07-10T00:28:56;10.60;;;5.90;;
39218;SDS011;24934;52.752;6.964;2022-07-10T00:31:22;10.30;;;5.93;;
39218;SDS011;24934;52.752;6.964;2022-07-10T00:33:47;10.07;;;6.07;;
39218;SDS011;24934;52.752;6.964;2022-07-10T00:36:13;12.50;;;6.18;;
39218;SDS011;24934;52.752;6.964;2022-07-10T00:38:39;16.20;;;5.90;;
39218;SDS011;24934;52.752;6.964;2022-07-10T00:41:05;10.32;;;6.03;;
39218;SDS011;24934;52.752;6.964;2022-07-10T00:43:50;13.45;;;6.30;;
39218;SDS011;24934;52.752;6.964;2022-07-10T00:46:26;11.80;;;5.78;;
39218;SDS011;24934;52.752;6.964;2022-07-10T00:48:52;12.37;;;6.43;;
39218;SDS011;24934;52.752;6.964;2022-07-10T00:51:20;12.93;;;6.30;;
39218;SDS011;24934;52.752;6.964;2022-07-10T00:53:51;11.73;;;6.00;;
39218;SDS011;24934;52.752;6.964;2022-07-10T00:56:19;12.53;;;6.23;;
39218;SDS011;24934;52.752;6.964;2022-07-10T00:58:49;15.02;;;7.53;;
39218;SDS011;24934;52.752;6.964;2022-07-10T01:01:14;14.03;;;7.40;;
39218;SDS011;24934;52.752;6.964;2022-07-10T01:03:41;12.33;;;6.93;;
39218;SDS011;24934;52.752;6.964;2022-07-10T01:06:08;13.27;;;6.90;;
39218;SDS011;24934;52.752;6.964;2022-07-10T01:08:34;14.30;;;7.33;;
39218;SDS011;24934;52.752;6.964;2022-07-10T01:11:00;15.23;;;7.10;;
39218;SDS011;24934;52.752;6.964;2022-07-10T01:13:26;11.53;;;7.13;;
39218;SDS011;24934;52.752;6.964;2022-07-10T01:15:53;14.50;;;6.70;;
39218;SDS011;24934;52.752;6.964;2022-07-10T01:18:19;11.33;;;6.70;;
39218;SDS011;24934;52.752;6.964;2022-07-10T01:20:45;15.03;;;7.40;;
39218;SDS011;24934;52.752;6.964;2022-07-10T01:23:11;11.68;;;6.47;;
39218;SDS011;24934;52.752;6.964;2022-07-10T01:25:36;13.80;;;8.17;;
39218;SDS011;24934;52.752;6.964;2022-07-10T01:28:02;11.75;;;7.07;;
39218;SDS011;24934;52.752;6.964;2022-07-10T01:30:28;11.13;;;7.43;;
39218;SDS011;24934;52.752;6.964;2022-07-10T01:32:54;16.80;;;7.17;;
39218;SDS011;24934;52.752;6.964;2022-07-10T01:35:19;12.80;;;6.90;;
39218;SDS011;24934;52.752;6.964;2022-07-10T01:37:45;11.63;;;7.00;;
39218;SDS011;24934;52.752;6.964;2022-07-10T01:40:11;16.53;;;7.03;;
39218;SDS011;24934;52.752;6.964;2022-07-10T01:42:37;16.03;;;7.37;;
39218;SDS011;24934;52.752;6.964;2022-07-10T01:45:07;12.68;;;6.60;;
39218;SDS011;24934;52.752;6.964;2022-07-10T01:47:34;10.87;;;7.13;;
39218;SDS011;24934;52.752;6.964;2022-07-10T01:50:00;13.90;;;7.25;;
39218;SDS011;24934;52.752;6.964;2022-07-10T01:52:26;11.27;;;6.90;;
39218;SDS011;24934;52.752;6.964;2022-07-10T01:54:51;18.60;;;6.77;;
39218;SDS011;24934;52.752;6.964;2022-07-10T01:57:17;12.57;;;6.27;;
39218;SDS011;24934;52.752;6.964;2022-07-10T01:59:43;13.73;;;6.30;;
39218;SDS011;24934;52.752;6.964;2022-07-10T02:02:09;14.40;;;6.83;;
39218;SDS011;24934;52.752;6.964;2022-07-10T02:04:35;11.00;;;6.43;;
39218;SDS011;24934;52.752;6.964;2022-07-10T02:07:07;16.50;;;6.90;;
39218;SDS011;24934;52.752;6.964;2022-07-10T02:09:33;13.93;;;7.30;;
39218;SDS011;24934;52.752;6.964;2022-07-10T02:11:59;12.07;;;6.80;;
39218;SDS011;24934;52.752;6.964;2022-07-10T02:14:24;13.10;;;7.03;;
39218;SDS011;24934;52.752;6.964;2022-07-10T02:16:50;15.87;;;6.80;;
39218;SDS011;24934;52.752;6.964;2022-07-10T02:19:15;14.10;;;7.13;;
39218;SDS011;24934;52.752;6.964;2022-07-10T02:21:43;13.37;;;7.40;;
39218;SDS011;24934;52.752;6.964;2022-07-10T02:24:09;15.40;;;8.47;;
39218;SDS011;24934;52.752;6.964;2022-07-10T02:26:35;13.57;;;7.13;;
39218;SDS011;24934;52.752;6.964;2022-07-10T02:29:00;12.80;;;7.47;;
39218;SDS011;24934;52.752;6.964;2022-07-10T02:31:26;15.07;;;7.40;;
39218;SDS011;24934;52.752;6.964;2022-07-10T02:33:51;11.10;;;7.10;;
39218;SDS011;24934;52.752;6.964;2022-07-10T02:36:17;13.80;;;7.33;;
39218;SDS011;24934;52.752;6.964;2022-07-10T02:38:42;14.87;;;7.70;;
39218;SDS011;24934;52.752;6.964;2022-07-10T02:41:08;16.97;;;7.53;;
39218;SDS011;24934;52.752;6.964;2022-07-10T02:43:34;12.57;;;7.13;;
39218;SDS011;24934;52.752;6.964;2022-07-10T02:45:59;11.43;;;6.50;;
39218;SDS011;24934;52.752;6.964;2022-07-10T02:48:26;12.17;;;7.20;;
39218;SDS011;24934;52.752;6.964;2022-07-10T02:50:52;11.10;;;7.20;;
39218;SDS011;24934;52.752;6.964;2022-07-10T02:53:18;15.80;;;7.40;;
39218;SDS011;24934;52.752;6.964;2022-07-10T02:55:43;13.40;;;7.87;;
39218;SDS011;24934;52.752;6.964;2022-07-10T02:58:09;11.87;;;7.20;;
39218;SDS011;24934;52.752;6.964;2022-07-10T03:00:35;13.40;;;7.57;;
39218;SDS011;24934;52.752;6.964;2022-07-10T03:03:01;17.93;;;8.00;;
39218;SDS011;24934;52.752;6.964;2022-07-10T03:05:27;16.60;;;6.80;;
39218;SDS011;24934;52.752;6.964;2022-07-10T03:07:53;17.63;;;7.87;;
39218;SDS011;24934;52.752;6.964;2022-07-10T03:10:19;16.57;;;6.80;;
39218;SDS011;24934;52.752;6.964;2022-07-10T03:12:45;11.27;;;6.07;;
39218;SDS011;24934;52.752;6.964;2022-07-10T03:15:11;15.30;;;6.83;;
39218;SDS011;24934;52.752;6.964;2022-07-10T03:17:37;14.27;;;7.23;;
39218;SDS011;24934;52.752;6.964;2022-07-10T03:20:03;12.73;;;7.30;;
39218;SDS011;24934;52.752;6.964;2022-07-10T03:22:29;11.80;;;7.03;;
39218;SDS011;24934;52.752;6.964;2022-07-10T03:24:56;13.40;;;7.30;;
39218;SDS011;24934;52.752;6.964;2022-07-10T03:27:22;13.10;;;7.40;;
39218;SDS011;24934;52.752;6.964;2022-07-10T03:29:48;12.33;;;7.07;;
39218;SDS011;24934;52.752;6.964;2022-07-10T03:32:13;12.23;;;7.60;;
39218;SDS011;24934;52.752;6.964;2022-07-10T03:34:39;13.67;;;7.70;;
39218;SDS011;24934;52.752;6.964;2022-07-10T03:37:05;15.57;;;8.00;;
39218;SDS011;24934;52.752;6.964;2022-07-10T03:39:30;13.57;;;7.47;;
39218;SDS011;24934;52.752;6.964;2022-07-10T03:41:56;12.43;;;7.93;;
39218;SDS011;24934;52.752;6.964;2022-07-10T03:44:21;12.87;;;7.70;;
39218;SDS011;24934;52.752;6.964;2022-07-10T03:46:47;16.90;;;7.83;;
39218;SDS011;24934;52.752;6.964;2022-07-10T03:49:13;15.90;;;7.63;;
39218;SDS011;24934;52.752;6.964;2022-07-10T03:51:38;14.90;;;7.40;;
39218;SDS011;24934;52.752;6.964;2022-07-10T03:54:04;20.50;;;7.50;;
39218;SDS011;24934;52.752;6.964;2022-07-10T03:56:29;14.50;;;7.07;;
39218;SDS011;24934;52.752;6.964;2022-07-10T03:59:13;11.73;;;7.57;;
39218;SDS011;24934;52.752;6.964;2022-07-10T04:01:39;13.13;;;7.47;;
39218;SDS011;24934;52.752;6.964;2022-07-10T04:04:04;12.03;;;7.53;;
39218;SDS011;24934;52.752;6.964;2022-07-10T04:06:30;17.30;;;7.30;;
39218;SDS011;24934;52.752;6.964;2022-07-10T04:08:56;13.50;;;7.67;;
39218;SDS011;24934;52.752;6.964;2022-07-10T04:11:21;15.97;;;7.30;;
39218;SDS011;24934;52.752;6.964;2022-07-10T04:13:47;11.77;;;7.27;;
39218;SDS011;24934;52.752;6.964;2022-07-10T04:16:12;12.43;;;7.30;;
39218;SDS011;24934;52.752;6.964;2022-07-10T04:18:40;11.83;;;6.93;;
39218;SDS011;24934;52.752;6.964;2022-07-10T04:21:05;13.93;;;6.77;;
39218;SDS011;24934;52.752;6.964;2022-07-10T04:23:34;14.23;;;7.50;;
39218;SDS011;24934;52.752;6.964;2022-07-10T04:26:00;15.60;;;6.97;;
39218;SDS011;24934;52.752;6.964;2022-07-10T04:28:26;14.97;;;7.13;;
39218;SDS011;24934;52.752;6.964;2022-07-10T04:30:52;11.53;;;6.53;;
39218;SDS011;24934;52.752;6.964;2022-07-10T04:33:17;12.73;;;7.00;;
39218;SDS011;24934;52.752;6.964;2022-07-10T04:35:43;14.77;;;6.43;;
39218;SDS011;24934;52.752;6.964;2022-07-10T04:38:09;16.42;;;6.78;;
39218;SDS011;24934;52.752;6.964;2022-07-10T04:40:34;12.63;;;6.20;;
39218;SDS011;24934;52.752;6.964;2022-07-10T04:43:00;14.82;;;6.97;;
39218;SDS011;24934;52.752;6.964;2022-07-10T04:45:26;11.43;;;6.55;;
39218;SDS011;24934;52.752;6.964;2022-07-10T04:47:51;14.15;;;7.15;;
39218;SDS011;24934;52.752;6.964;2022-07-10T04:50:17;13.32;;;7.30;;
39218;SDS011;24934;52.752;6.964;2022-07-10T04:52:43;13.13;;;6.57;;
39218;SDS011;24934;52.752;6.964;2022-07-10T04:55:09;15.75;;;7.75;;
39218;SDS011;24934;52.752;6.964;2022-07-10T04:57:34;12.40;;;6.50;;
39218;SDS011;24934;52.752;6.964;2022-07-10T05:00:00;13.90;;;7.13;;
39218;SDS011;24934;52.752;6.964;2022-07-10T05:02:26;14.70;;;7.30;;
39218;SDS011;24934;52.752;6.964;2022-07-10T05:04:52;11.25;;;6.70;;
39218;SDS011;24934;52.752;6.964;2022-07-10T05:07:18;13.82;;;7.10;;
39218;SDS011;24934;52.752;6.964;2022-07-10T05:09:43;10.68;;;6.63;;
39218;SDS011;24934;52.752;6.964;2022-07-10T05:12:09;12.82;;;6.63;;
39218;SDS011;24934;52.752;6.964;2022-07-10T05:14:34;15.95;;;6.97;;
39218;SDS011;24934;52.752;6.964;2022-07-10T05:17:00;16.90;;;6.85;;
39218;SDS011;24934;52.752;6.964;2022-07-10T05:19:26;9.82;;;7.13;;
39218;SDS011;24934;52.752;6.964;2022-07-10T05:21:51;14.55;;;7.28;;
39218;SDS011;24934;52.752;6.964;2022-07-10T05:24:17;14.15;;;7.25;;
39218;SDS011;24934;52.752;6.964;2022-07-10T05:26:43;12.45;;;6.75;;
39218;SDS011;24934;52.752;6.964;2022-07-10T05:29:09;12.45;;;7.20;;
39218;SDS011;24934;52.752;6.964;2022-07-10T05:31:35;11.93;;;7.13;;
39218;SDS011;24934;52.752;6.964;2022-07-10T05:34:03;13.55;;;6.60;;
39218;SDS011;24934;52.752;6.964;2022-07-10T05:36:28;13.68;;;6.88;;
39218;SDS011;24934;52.752;6.964;2022-07-10T05:38:54;10.65;;;6.32;;
39218;SDS011;24934;52.752;6.964;2022-07-10T05:41:20;11.38;;;6.95;;
39218;SDS011;24934;52.752;6.964;2022-07-10T05:43:45;12.75;;;6.88;;
39218;SDS011;24934;52.752;6.964;2022-07-10T05:46:11;19.40;;;6.93;;
39218;SDS011;24934;52.752;6.964;2022-07-10T05:48:36;12.10;;;6.82;;
39218;SDS011;24934;52.752;6.964;2022-07-10T05:51:05;14.15;;;7.50;;
39218;SDS011;24934;52.752;6.964;2022-07-10T05:53:30;18.83;;;7.82;;
39218;SDS011;24934;52.752;6.964;2022-07-10T05:55:59;12.57;;;7.10;;
39218;SDS011;24934;52.752;6.964;2022-07-10T05:58:28;9.45;;;7.00;;
39218;SDS011;24934;52.752;6.964;2022-07-10T06:00:54;14.02;;;6.80;;
39218;SDS011;24934;52.752;6.964;2022-07-10T06:03:20;14.25;;;7.03;;
39218;SDS011;24934;52.752;6.964;2022-07-10T06:05:46;13.13;;;7.50;;
39218;SDS011;24934;52.752;6.964;2022-07-10T06:08:12;9.50;;;6.15;;
39218;SDS011;24934;52.752;6.964;2022-07-10T06:10:37;9.52;;;6.90;;
39218;SDS011;24934;52.752;6.964;2022-07-10T06:13:05;9.88;;;6.53;;
39218;SDS011;24934;52.752;6.964;2022-07-10T06:15:31;13.50;;;7.22;;
39218;SDS011;24934;52.752;6.964;2022-07-10T06:17:57;13.73;;;7.32;;
39218;SDS011;24934;52.752;6.964;2022-07-10T06:20:25;10.05;;;7.18;;
39218;SDS011;24934;52.752;6.964;2022-07-10T06:22:51;12.32;;;6.70;;
39218;SDS011;24934;52.752;6.964;2022-07-10T06:25:17;8.80;;;6.55;;
39218;SDS011;24934;52.752;6.964;2022-07-10T06:27:42;12.38;;;6.65;;
39218;SDS011;24934;52.752;6.964;2022-07-10T06:30:08;9.95;;;6.55;;
39218;SDS011;24934;52.752;6.964;2022-07-10T06:32:35;12.48;;;6.22;;
39218;SDS011;24934;52.752;6.964;2022-07-10T06:35:00;14.07;;;6.63;;
39218;SDS011;24934;52.752;6.964;2022-07-10T06:37:26;13.90;;;7.25;;
39218;SDS011;24934;52.752;6.964;2022-07-10T06:39:55;9.43;;;5.95;;
39218;SDS011;24934;52.752;6.964;2022-07-10T06:42:20;11.40;;;6.57;;
39218;SDS011;24934;52.752;6.964;2022-07-10T06:44:46;15.23;;;7.07;;
39218;SDS011;24934;52.752;6.964;2022-07-10T06:47:12;13.75;;;6.95;;
39218;SDS011;24934;52.752;6.964;2022-07-10T06:49:59;13.27;;;6.85;;
39218;SDS011;24934;52.752;6.964;2022-07-10T06:52:25;11.98;;;7.22;;
39218;SDS011;24934;52.752;6.964;2022-07-10T06:54:51;11.07;;;7.07;;
39218;SDS011;24934;52.752;6.964;2022-07-10T06:57:17;10.95;;;6.70;;
39218;SDS011;24934;52.752;6.964;2022-07-10T06:59:44;13.75;;;6.53;;
39218;SDS011;24934;52.752;6.964;2022-07-10T07:02:10;12.77;;;6.55;;
39218;SDS011;24934;52.752;6.964;2022-07-10T07:04:35;12.77;;;6.45;;
39218;SDS011;24934;52.752;6.964;2022-07-10T07:07:01;13.57;;;6.80;;
39218;SDS011;24934;52.752;6.964;2022-07-10T07:09:28;10.07;;;5.97;;
39218;SDS011;24934;52.752;6.964;2022-07-10T07:11:53;9.70;;;6.35;;
39218;SDS011;24934;52.752;6.964;2022-07-10T07:14:19;13.82;;;6.22;;
39218;SDS011;24934;52.752;6.964;2022-07-10T07:16:44;10.80;;;6.28;;
39218;SDS011;24934;52.752;6.964;2022-07-10T07:19:12;14.05;;;7.40;;
39218;SDS011;24934;52.752;6.964;2022-07-10T07:21:43;13.63;;;8.07;;
39218;SDS011;24934;52.752;6.964;2022-07-10T07:24:27;13.88;;;8.57;;
39218;SDS011;24934;52.752;6.964;2022-07-10T07:26:53;13.13;;;8.27;;
39218;SDS011;24934;52.752;6.964;2022-07-10T07:29:18;12.98;;;8.50;;
39218;SDS011;24934;52.752;6.964;2022-07-10T07:31:44;12.40;;;8.75;;
39218;SDS011;24934;52.752;6.964;2022-07-10T07:34:10;10.90;;;8.60;;
39218;SDS011;24934;52.752;6.964;2022-07-10T07:36:36;16.60;;;8.18;;
39218;SDS011;24934;52.752;6.964;2022-07-10T07:39:02;11.20;;;7.80;;
39218;SDS011;24934;52.752;6.964;2022-07-10T07:41:28;11.85;;;7.80;;
39218;SDS011;24934;52.752;6.964;2022-07-10T07:43:54;15.30;;;8.27;;
39218;SDS011;24934;52.752;6.964;2022-07-10T07:46:19;10.43;;;8.77;;
39218;SDS011;24934;52.752;6.964;2022-07-10T07:48:46;11.55;;;7.43;;
39218;SDS011;24934;52.752;6.964;2022-07-10T07:51:11;8.98;;;7.13;;
39218;SDS011;24934;52.752;6.964;2022-07-10T07:53:38;13.32;;;7.10;;
39218;SDS011;24934;52.752;6.964;2022-07-10T07:56:03;14.85;;;7.70;;
39218;SDS011;24934;52.752;6.964;2022-07-10T07:58:29;11.55;;;7.15;;
39218;SDS011;24934;52.752;6.964;2022-07-10T08:00:55;9.52;;;6.57;;
39218;SDS011;24934;52.752;6.964;2022-07-10T08:03:21;13.48;;;7.78;;
39218;SDS011;24934;52.752;6.964;2022-07-10T08:05:47;14.07;;;6.95;;
39218;SDS011;24934;52.752;6.964;2022-07-10T08:08:13;8.48;;;6.20;;
39218;SDS011;24934;52.752;6.964;2022-07-10T08:10:39;10.65;;;6.20;;
39218;SDS011;24934;52.752;6.964;2022-07-10T08:13:04;8.02;;;6.32;;
39218;SDS011;24934;52.752;6.964;2022-07-10T08:15:30;11.25;;;7.13;;
39218;SDS011;24934;52.752;6.964;2022-07-10T08:17:56;9.15;;;6.60;;
39218;SDS011;24934;52.752;6.964;2022-07-10T08:20:24;9.65;;;6.82;;
39218;SDS011;24934;52.752;6.964;2022-07-10T08:22:51;12.10;;;6.68;;
39218;SDS011;24934;52.752;6.964;2022-07-10T08:25:18;12.25;;;6.65;;
39218;SDS011;24934;52.752;6.964;2022-07-10T08:27:45;11.43;;;7.00;;
39218;SDS011;24934;52.752;6.964;2022-07-10T08:30:11;12.82;;;8.52;;
39218;SDS011;24934;52.752;6.964;2022-07-10T08:32:37;9.80;;;6.18;;
39218;SDS011;24934;52.752;6.964;2022-07-10T08:35:04;10.07;;;6.45;;
39218;SDS011;24934;52.752;6.964;2022-07-10T08:37:40;9.30;;;6.22;;
39218;SDS011;24934;52.752;6.964;2022-07-10T08:40:12;10.05;;;7.20;;
39218;SDS011;24934;52.752;6.964;2022-07-10T08:42:40;11.30;;;10.30;;
39218;SDS011;24934;52.752;6.964;2022-07-10T08:45:09;11.10;;;9.90;;
39218;SDS011;24934;52.752;6.964;2022-07-10T08:47:36;10.13;;;9.23;;
39218;SDS011;24934;52.752;6.964;2022-07-10T08:50:03;9.45;;;8.48;;
39218;SDS011;24934;52.752;6.964;2022-07-10T08:52:42;9.35;;;8.38;;
39218;SDS011;24934;52.752;6.964;2022-07-10T08:55:13;9.52;;;7.35;;
39218;SDS011;24934;52.752;6.964;2022-07-10T08:57:39;8.80;;;7.75;;
39218;SDS011;24934;52.752;6.964;2022-07-10T09:00:08;9.07;;;7.35;;
39218;SDS011;24934;52.752;6.964;2022-07-10T09:02:34;7.22;;;6.55;;
39218;SDS011;24934;52.752;6.964;2022-07-10T09:05:00;7.93;;;7.05;;
39218;SDS011;24934;52.752;6.964;2022-07-10T09:07:34;7.13;;;6.50;;
39218;SDS011;24934;52.752;6.964;2022-07-10T09:10:05;7.63;;;6.93;;
39218;SDS011;24934;52.752;6.964;2022-07-10T09:12:48;8.25;;;6.50;;
39218;SDS011;24934;52.752;6.964;2022-07-10T09:15:18;7.35;;;6.53;;
39218;SDS011;24934;52.752;6.964;2022-07-10T09:18:05;7.05;;;6.45;;
39218;SDS011;24934;52.752;6.964;2022-07-10T09:20:37;7.78;;;6.45;;
39218;SDS011;24934;52.752;6.964;2022-07-10T09:25:45;7.82;;;5.95;;
39218;SDS011;24934;52.752;6.964;2022-07-10T09:28:12;7.72;;;7.15;;
39218;SDS011;24934;52.752;6.964;2022-07-10T09:30:40;8.20;;;7.38;;
39218;SDS011;24934;52.752;6.964;2022-07-10T09:35:55;7.30;;;6.60;;
39218;SDS011;24934;52.752;6.964;2022-07-10T09:41:26;7.10;;;6.40;;
39218;SDS011;24934;52.752;6.964;2022-07-10T09:44:00;7.00;;;6.30;;
39218;SDS011;24934;52.752;6.964;2022-07-10T09:49:09;8.95;;;7.15;;
39218;SDS011;24934;52.752;6.964;2022-07-10T09:51:37;8.75;;;7.95;;
39218;SDS011;24934;52.752;6.964;2022-07-10T09:54:05;8.57;;;7.78;;
39218;SDS011;24934;52.752;6.964;2022-07-10T09:56:42;9.27;;;8.48;;
39218;SDS011;24934;52.752;6.964;2022-07-10T09:59:12;10.27;;;9.02;;
39218;SDS011;24934;52.752;6.964;2022-07-10T10:01:58;9.55;;;8.73;;
39218;SDS011;24934;52.752;6.964;2022-07-10T10:04:25;11.02;;;9.30;;
39218;SDS011;24934;52.752;6.964;2022-07-10T10:06:58;10.70;;;9.60;;
39218;SDS011;24934;52.752;6.964;2022-07-10T10:09:33;10.48;;;9.68;;
39218;SDS011;24934;52.752;6.964;2022-07-10T10:12:04;9.88;;;8.93;;
39218;SDS011;24934;52.752;6.964;2022-07-10T10:14:35;10.88;;;8.88;;
39218;SDS011;24934;52.752;6.964;2022-07-10T10:17:03;9.20;;;8.15;;
39218;SDS011;24934;52.752;6.964;2022-07-10T10:19:30;9.50;;;8.80;;
39218;SDS011;24934;52.752;6.964;2022-07-10T10:22:17;10.38;;;8.48;;
39218;SDS011;24934;52.752;6.964;2022-07-10T10:24:44;9.15;;;8.38;;
39218;SDS011;24934;52.752;6.964;2022-07-10T10:27:11;8.95;;;8.13;;
39218;SDS011;24934;52.752;6.964;2022-07-10T10:29:38;9.10;;;8.30;;
39218;SDS011;24934;52.752;6.964;2022-07-10T10:32:04;8.15;;;7.45;;
39218;SDS011;24934;52.752;6.964;2022-07-10T10:34:45;8.13;;;7.53;;
39218;SDS011;24934;52.752;6.964;2022-07-10T10:37:37;10.82;;;7.80;;
39218;SDS011;24934;52.752;6.964;2022-07-10T10:40:07;6.97;;;6.28;;
39218;SDS011;24934;52.752;6.964;2022-07-10T10:48:10;6.93;;;6.38;;
39218;SDS011;24934;52.752;6.964;2022-07-10T10:50:41;6.18;;;5.60;;
39218;SDS011;24934;52.752;6.964;2022-07-10T10:53:14;5.65;;;5.25;;
39218;SDS011;24934;52.752;6.964;2022-07-10T10:58:26;6.40;;;6.00;;
39218;SDS011;24934;52.752;6.964;2022-07-10T11:01:02;6.57;;;6.10;;
39218;SDS011;24934;52.752;6.964;2022-07-10T11:03:28;6.15;;;5.65;;
39218;SDS011;24934;52.752;6.964;2022-07-10T11:05:54;6.93;;;6.43;;
39218;SDS011;24934;52.752;6.964;2022-07-10T11:08:37;7.45;;;6.90;;
39218;SDS011;24934;52.752;6.964;2022-07-10T11:13:56;6.30;;;5.80;;
39218;SDS011;24934;52.752;6.964;2022-07-10T11:16:23;5.88;;;5.47;;
39218;SDS011;24934;52.752;6.964;2022-07-10T11:18:52;6.30;;;5.80;;
39218;SDS011;24934;52.752;6.964;2022-07-10T11:21:22;6.18;;;5.68;;
39218;SDS011;24934;52.752;6.964;2022-07-10T11:23:56;6.22;;;5.63;;
39218;SDS011;24934;52.752;6.964;2022-07-10T11:29:23;6.20;;;5.65;;
39218;SDS011;24934;52.752;6.964;2022-07-10T11:31:52;6.70;;;6.00;;
39218;SDS011;24934;52.752;6.964;2022-07-10T11:34:19;6.18;;;5.68;;
39218;SDS011;24934;52.752;6.964;2022-07-10T11:36:46;6.95;;;6.32;;
39218;SDS011;24934;52.752;6.964;2022-07-10T11:39:13;7.53;;;6.93;;
39218;SDS011;24934;52.752;6.964;2022-07-10T11:41:43;7.15;;;6.40;;
39218;SDS011;24934;52.752;6.964;2022-07-10T11:44:15;6.20;;;5.70;;
39218;SDS011;24934;52.752;6.964;2022-07-10T11:46:43;6.43;;;5.82;;
39218;SDS011;24934;52.752;6.964;2022-07-10T11:49:10;7.63;;;6.93;;
39218;SDS011;24934;52.752;6.964;2022-07-10T11:51:38;8.20;;;6.72;;
39218;SDS011;24934;52.752;6.964;2022-07-10T11:54:11;7.32;;;6.63;;
39218;SDS011;24934;52.752;6.964;2022-07-10T11:56:41;6.97;;;5.88;;
39218;SDS011;24934;52.752;6.964;2022-07-10T11:59:11;7.10;;;6.40;;
39218;SDS011;24934;52.752;6.964;2022-07-10T12:01:48;6.80;;;6.20;;
39218;SDS011;24934;52.752;6.964;2022-07-10T12:04:17;7.30;;;6.60;;
39218;SDS011;24934;52.752;6.964;2022-07-10T12:06:45;7.07;;;6.43;;
39218;SDS011;24934;52.752;6.964;2022-07-10T12:09:12;13.15;;;7.60;;
39218;SDS011;24934;52.752;6.964;2022-07-10T12:11:40;7.80;;;6.85;;
39218;SDS011;24934;52.752;6.964;2022-07-10T12:14:10;9.43;;;7.25;;
39218;SDS011;24934;52.752;6.964;2022-07-10T12:16:43;7.93;;;7.00;;
39218;SDS011;24934;52.752;6.964;2022-07-10T12:19:11;7.57;;;6.82;;
39218;SDS011;24934;52.752;6.964;2022-07-10T12:21:38;10.13;;;7.20;;
39218;SDS011;24934;52.752;6.964;2022-07-10T12:24:05;8.40;;;7.28;;
39218;SDS011;24934;52.752;6.964;2022-07-10T12:26:33;8.23;;;7.43;;
39218;SDS011;24934;52.752;6.964;2022-07-10T12:28:59;8.30;;;7.50;;
39218;SDS011;24934;52.752;6.964;2022-07-10T12:31:26;8.95;;;7.82;;
39218;SDS011;24934;52.752;6.964;2022-07-10T12:33:58;7.82;;;7.13;;
39218;SDS011;24934;52.752;6.964;2022-07-10T12:36:43;8.70;;;7.78;;
39218;SDS011;24934;52.752;6.964;2022-07-10T12:39:15;8.48;;;7.65;;
39218;SDS011;24934;52.752;6.964;2022-07-10T12:41:58;9.02;;;8.30;;
39218;SDS011;24934;52.752;6.964;2022-07-10T12:44:34;8.57;;;7.75;;
39218;SDS011;24934;52.752;6.964;2022-07-10T12:47:11;10.27;;;7.30;;
39218;SDS011;24934;52.752;6.964;2022-07-10T12:49:47;14.27;;;12.88;;
39218;SDS011;24934;52.752;6.964;2022-07-10T12:52:24;13.50;;;12.27;;
39218;SDS011;24934;52.752;6.964;2022-07-10T12:58:04;11.48;;;10.30;;
39218;SDS011;24934;52.752;6.964;2022-07-10T13:00:31;11.27;;;10.25;;
39218;SDS011;24934;52.752;6.964;2022-07-10T13:03:06;11.20;;;10.10;;
39218;SDS011;24934;52.752;6.964;2022-07-10T13:05:36;9.60;;;8.70;;
39218;SDS011;24934;52.752;6.964;2022-07-10T13:10:51;9.80;;;8.82;;
39218;SDS011;24934;52.752;6.964;2022-07-10T13:13:18;9.93;;;9.13;;
39218;SDS011;24934;52.752;6.964;2022-07-10T13:15:44;9.35;;;8.48;;
39218;SDS011;24934;52.752;6.964;2022-07-10T13:18:20;9.95;;;8.80;;
39218;SDS011;24934;52.752;6.964;2022-07-10T13:20:47;10.68;;;9.68;;
39218;SDS011;24934;52.752;6.964;2022-07-10T13:23:14;10.25;;;9.32;;
39218;SDS011;24934;52.752;6.964;2022-07-10T13:25:40;10.35;;;8.35;;
39218;SDS011;24934;52.752;6.964;2022-07-10T13:28:06;11.30;;;8.27;;
39218;SDS011;24934;52.752;6.964;2022-07-10T13:30:39;12.38;;;9.30;;
39218;SDS011;24934;52.752;6.964;2022-07-10T13:33:04;10.63;;;9.27;;
39218;SDS011;24934;52.752;6.964;2022-07-10T13:35:32;10.02;;;9.02;;
39218;SDS011;24934;52.752;6.964;2022-07-10T13:37:58;11.10;;;8.93;;
39218;SDS011;24934;52.752;6.964;2022-07-10T13:40:29;11.15;;;9.00;;
39218;SDS011;24934;52.752;6.964;2022-07-10T13:42:56;12.15;;;8.68;;
39218;SDS011;24934;52.752;6.964;2022-07-10T13:45:22;9.13;;;7.43;;
39218;SDS011;24934;52.752;6.964;2022-07-10T13:47:51;8.50;;;7.68;;
39218;SDS011;24934;52.752;6.964;2022-07-10T13:50:18;12.07;;;7.78;;
39218;SDS011;24934;52.752;6.964;2022-07-10T13:52:45;7.97;;;7.28;;
39218;SDS011;24934;52.752;6.964;2022-07-10T13:55:11;8.38;;;7.22;;
39218;SDS011;24934;52.752;6.964;2022-07-10T13:57:37;8.93;;;6.80;;
39218;SDS011;24934;52.752;6.964;2022-07-10T14:00:03;8.65;;;7.38;;
39218;SDS011;24934;52.752;6.964;2022-07-10T14:02:29;8.00;;;7.30;;
39218;SDS011;24934;52.752;6.964;2022-07-10T14:04:54;11.27;;;8.10;;
39218;SDS011;24934;52.752;6.964;2022-07-10T14:07:20;8.82;;;7.68;;
39218;SDS011;24934;52.752;6.964;2022-07-10T14:09:45;9.55;;;7.05;;
39218;SDS011;24934;52.752;6.964;2022-07-10T14:12:11;7.20;;;6.60;;
39218;SDS011;24934;52.752;6.964;2022-07-10T14:14:37;7.75;;;7.15;;
39218;SDS011;24934;52.752;6.964;2022-07-10T14:17:03;8.30;;;7.50;;
39218;SDS011;24934;52.752;6.964;2022-07-10T14:19:28;8.00;;;7.20;;
39218;SDS011;24934;52.752;6.964;2022-07-10T14:21:54;10.02;;;7.30;;
39218;SDS011;24934;52.752;6.964;2022-07-10T14:24:20;7.43;;;6.78;;
39218;SDS011;24934;52.752;6.964;2022-07-10T14:26:45;7.97;;;6.82;;
39218;SDS011;24934;52.752;6.964;2022-07-10T14:29:11;8.25;;;7.55;;
39218;SDS011;24934;52.752;6.964;2022-07-10T14:31:38;10.57;;;8.07;;
39218;SDS011;24934;52.752;6.964;2022-07-10T14:34:04;9.35;;;7.78;;
39218;SDS011;24934;52.752;6.964;2022-07-10T14:36:30;8.65;;;7.85;;
39218;SDS011;24934;52.752;6.964;2022-07-10T14:38:56;8.90;;;8.05;;
39218;SDS011;24934;52.752;6.964;2022-07-10T14:41:23;8.15;;;7.35;;
39218;SDS011;24934;52.752;6.964;2022-07-10T14:43:50;8.85;;;7.90;;
39218;SDS011;24934;52.752;6.964;2022-07-10T14:46:16;10.10;;;7.13;;
39218;SDS011;24934;52.752;6.964;2022-07-10T14:48:41;9.50;;;7.80;;
39218;SDS011;24934;52.752;6.964;2022-07-10T14:51:07;8.40;;;6.53;;
39218;SDS011;24934;52.752;6.964;2022-07-10T14:53:34;7.80;;;7.00;;
39218;SDS011;24934;52.752;6.964;2022-07-10T14:56:03;8.45;;;7.75;;
39218;SDS011;24934;52.752;6.964;2022-07-10T14:58:30;8.90;;;7.22;;
39218;SDS011;24934;52.752;6.964;2022-07-10T15:00:56;8.27;;;7.43;;
39218;SDS011;24934;52.752;6.964;2022-07-10T15:03:22;7.82;;;7.00;;
39218;SDS011;24934;52.752;6.964;2022-07-10T15:05:48;7.63;;;6.88;;
39218;SDS011;24934;52.752;6.964;2022-07-10T15:08:18;9.00;;;7.00;;
39218;SDS011;24934;52.752;6.964;2022-07-10T15:10:44;9.85;;;7.50;;
39218;SDS011;24934;52.752;6.964;2022-07-10T15:13:11;9.93;;;7.20;;